Terminal Aerodrome Forecast
Issued by NWS Missoula, MT

Home | Current Version | Previous Version | Text Only | Print | Product List | Glossary On
Versions: 1 2 3 4 5 6 7 8 9 10 11 12 13
000
FTUS45 KMSO 031728
TAFBTM
TAF
KBTM 031728Z 0318/0418 31009KT P6SM VCSH FEW030 BKN100
     FM032100 31010G18KT P6SM VCTS OVC070CB
     FM040200 31007KT P6SM VCSH SCT020 OVC050=

USA.gov is the U.S. government's official web portal to all federal, state and local government web resources and services.